Time;durP1;ratioP1;P1;durP2;ratioP2;P2;SDS_P1;SDS_P2;PMS_P1;PMS_P2;Temp;Humidity;BMP_temperature;BMP_pressure;BME280_temperature;BME280_humidity;BME280_pressure;Samples;Min_cycle;Max_cycle;Signal;HPM_P1;HPM_P2
2021/03/19 00:01:15;;;;;;;15.80;12.02;;;5.10;99.90;;;;;;5016270;28;20225;-74
2021/03/19 00:03:42;;;;;;;17.38;11.45;;;5.00;99.90;;;;;;5015270;28;20639;-74
2021/03/19 00:06:08;;;;;;;15.60;11.30;;;5.00;99.90;;;;;;5016661;28;20206;-73
2021/03/19 00:08:35;;;;;;;15.35;11.95;;;5.00;99.90;;;;;;5015978;28;20248;-75
2021/03/19 00:11:02;;;;;;;15.40;10.48;;;4.90;99.90;;;;;;5015298;28;20607;-74
2021/03/19 00:13:29;;;;;;;15.00;11.20;;;4.90;99.90;;;;;;5015676;28;20195;-74
2021/03/19 00:15:56;;;;;;;13.80;10.85;;;4.80;99.90;;;;;;5015673;28;20250;-74
2021/03/19 00:18:24;;;;;;;15.93;11.35;;;4.80;99.90;;;;;;5016362;28;20686;-73
2021/03/19 00:20:51;;;;;;;16.17;10.60;;;4.80;99.90;;;;;;5016074;28;20202;-75
2021/03/19 00:23:18;;;;;;;15.23;11.18;;;4.80;99.90;;;;;;5014672;28;20202;-74
2021/03/19 00:25:45;;;;;;;15.15;11.35;;;4.80;16.30;;;;;;5014416;28;20225;-75
2021/03/19 00:28:15;;;;;;;13.30;10.93;;;4.80;1.00;;;;;;5014976;28;20202;-74
2021/03/19 00:30:42;;;;;;;15.32;10.85;;;4.80;1.00;;;;;;5014477;28;20202;-74
2021/03/19 00:33:10;;;;;;;14.15;11.02;;;4.70;1.00;;;;;;5015683;28;20208;-74
2021/03/19 00:35:37;;;;;;;15.05;11.18;;;4.70;1.00;;;;;;5019636;28;20230;-74
2021/03/19 00:38:05;;;;;;;14.45;10.63;;;4.70;1.00;;;;;;5035177;28;20221;-74
2021/03/19 00:40:32;;;;;;;15.10;11.40;;;4.70;99.90;;;;;;5035280;28;20196;-75
2021/03/19 00:42:59;;;;;;;21.38;12.40;;;4.70;1.00;;;;;;5035083;28;20696;-74
2021/03/19 00:45:26;;;;;;;16.25;11.38;;;4.60;99.90;;;;;;5000780;28;20606;-74
2021/03/19 00:47:55;;;;;;;14.50;10.48;;;4.60;99.90;;;;;;5017576;28;20203;-75
2021/03/19 00:50:26;;;;;;;14.35;10.73;;;4.60;1.00;;;;;;5017496;28;20195;-74
2021/03/19 00:52:53;;;;;;;14.98;11.65;;;4.50;1.00;;;;;;5035038;28;20333;-74
2021/03/19 00:55:20;;;;;;;20.00;13.25;;;4.50;99.90;;;;;;5034663;28;20217;-74
2021/03/19 00:57:47;;;;;;;17.52;12.20;;;4.50;99.90;;;;;;5034888;28;20189;-74
2021/03/19 01:00:15;;;;;;;17.00;13.43;;;4.40;99.90;;;;;;5034223;28;20585;-73
2021/03/19 01:02:42;;;;;;;19.77;12.77;;;4.40;99.90;;;;;;5035168;28;20657;-73
2021/03/19 01:05:10;;;;;;;18.08;11.25;;;4.40;99.90;;;;;;5034761;28;20223;-74
2021/03/19 01:07:38;;;;;;;19.63;13.80;;;4.30;99.90;;;;;;5035098;28;20652;-74
2021/03/19 01:10:08;;;;;;;17.58;12.30;;;4.30;1.00;;;;;;5034632;28;20192;-74
2021/03/19 01:12:35;;;;;;;15.10;12.48;;;4.30;99.90;;;;;;5035223;28;20566;-74
2021/03/19 01:15:01;;;;;;;14.63;11.82;;;4.20;99.90;;;;;;5034423;28;20217;-73
2021/03/19 01:17:28;;;;;;;17.33;11.50;;;4.20;99.90;;;;;;5033837;28;20203;-74
2021/03/19 01:19:55;;;;;;;11.07;9.75;;;4.10;99.90;;;;;;5034558;28;20227;-74
2021/03/19 01:22:22;;;;;;;14.75;10.32;;;4.10;1.00;;;;;;5037751;28;20198;-75
2021/03/19 01:24:49;;;;;;;15.98;10.85;;;4.10;1.00;;;;;;5034337;28;20221;-73
2021/03/19 01:27:16;;;;;;;14.40;9.75;;;4.10;1.00;;;;;;5034350;28;20219;-74
2021/03/19 01:29:43;;;;;;;17.15;10.75;;;4.10;1.00;;;;;;5034227;28;20201;-73
2021/03/19 01:32:09;;;;;;;14.75;10.32;;;4.10;1.00;;;;;;5033732;28;20196;-74
2021/03/19 01:34:36;;;;;;;15.35;11.30;;;4.10;1.00;;;;;;5033117;28;20212;-73
2021/03/19 01:37:03;;;;;;;13.57;11.15;;;4.10;1.00;;;;;;5033686;28;20231;-74
2021/03/19 01:39:30;;;;;;;16.02;11.00;;;4.10;99.90;;;;;;5034399;28;20695;-73
2021/03/19 01:41:58;;;;;;;14.52;10.82;;;4.10;1.00;;;;;;5034634;28;20196;-74
2021/03/19 01:44:25;;;;;;;15.95;12.43;;;4.10;1.00;;;;;;5016506;28;20212;-74
2021/03/19 01:47:22;;;;;;;15.93;11.57;;;4.00;1.00;;;;;;5034010;28;20195;-74
2021/03/19 01:50:18;;;;;;;21.73;13.50;;;4.00;1.00;;;;;;5032681;28;20539;-73
2021/03/19 01:53:14;;;;;;;17.48;13.52;;;4.10;99.90;;;;;;5032827;28;20540;-74
2021/03/19 01:56:10;;;;;;;17.88;14.35;;;4.00;99.90;;;;;;5032871;28;20215;-74
2021/03/19 01:59:07;;;;;;;15.27;12.40;;;4.00;1.00;;;;;;5032740;28;20224;-75
2021/03/19 02:02:03;;;;;;;15.98;12.85;;;4.00;1.00;;;;;;5032832;28;20199;-74
2021/03/19 02:04:59;;;;;;;16.15;12.65;;;4.00;1.00;;;;;;5032925;28;20579;-74
2021/03/19 02:07:55;;;;;;;20.15;13.55;;;3.90;1.00;;;;;;5031984;28;20202;-73
2021/03/19 02:10:51;;;;;;;16.45;13.45;;;3.90;99.90;;;;;;5032482;28;20207;-75
2021/03/19 02:13:47;;;;;;;15.55;11.82;;;3.90;99.90;;;;;;5032889;28;20204;-73
2021/03/19 02:16:43;;;;;;;17.83;12.70;;;3.90;99.90;;;;;;5032647;28;20199;-73
2021/03/19 02:19:39;;;;;;;16.38;11.98;;;3.90;1.00;;;;;;5032379;28;20219;-74
2021/03/19 02:22:35;;;;;;;15.68;12.05;;;3.90;1.00;;;;;;5032494;28;20208;-74
2021/03/19 02:25:32;;;;;;;16.00;12.40;;;3.90;1.00;;;;;;5031604;28;20211;-74
2021/03/19 02:28:28;;;;;;;21.88;13.45;;;3.90;1.00;;;;;;5032440;28;20192;-74
2021/03/19 02:31:10;;;;;;;20.25;13.80;;;3.90;89.00;;;;;;5032518;28;20528;-74
2021/03/19 02:33:42;;;;;;;21.02;13.85;;;4.00;1.00;;;;;;5032739;28;20283;-75
2021/03/19 02:36:09;;;;;;;20.65;14.07;;;4.00;1.00;;;;;;5012155;28;20252;-73
2021/03/19 02:38:36;;;;;;;20.20;14.13;;;4.00;1.00;;;;;;5012264;28;20227;-74
2021/03/19 02:41:03;;;;;;;20.92;15.00;;;4.00;99.90;;;;;;5013205;28;20558;-74
2021/03/19 02:43:29;;;;;;;23.95;14.50;;;4.00;99.90;;;;;;5013665;28;20208;-74
2021/03/19 02:45:56;;;;;;;25.58;16.08;;;4.00;1.00;;;;;;5016061;28;20641;-74
2021/03/19 02:48:23;;;;;;;21.10;14.63;;;3.90;1.00;;;;;;5017477;28;20203;-74
2021/03/19 02:50:51;;;;;;;18.17;14.18;;;3.90;1.00;;;;;;5017510;28;20553;-74
2021/03/19 02:53:21;;;;;;;19.48;13.98;;;3.90;99.90;;;;;;5016178;28;20199;-74
2021/03/19 02:55:48;;;;;;;20.52;15.52;;;3.90;99.90;;;;;;5015461;28;20235;-74
2021/03/19 02:58:15;;;;;;;24.67;15.27;;;3.90;99.90;;;;;;5016030;28;20685;-74
2021/03/19 03:00:42;;;;;;;18.50;15.00;;;3.90;99.90;;;;;;5017305;28;20186;-74
2021/03/19 03:03:08;;;;;;;22.42;14.50;;;3.80;99.90;;;;;;5017275;28;20266;-73
2021/03/19 03:05:35;;;;;;;22.02;14.57;;;3.80;99.90;;;;;;5016478;28;20556;-73
2021/03/19 03:08:05;;;;;;;18.17;14.82;;;3.80;99.90;;;;;;5017047;28;20200;-75
2021/03/19 03:10:35;;;;;;;20.63;13.48;;;3.70;1.00;;;;;;5017122;28;20780;-74
2021/03/19 03:13:02;;;;;;;21.10;16.75;;;3.70;99.90;;;;;;4999919;28;20193;-74
2021/03/19 03:15:28;;;;;;;22.42;15.38;;;3.70;99.90;;;;;;5015818;28;20266;-74
2021/03/19 03:17:55;;;;;;;21.13;14.10;;;3.70;99.90;;;;;;5017005;28;20200;-74
2021/03/19 03:20:25;;;;;;;20.45;14.90;;;3.60;99.90;;;;;;5016866;28;20200;-74
2021/03/19 03:22:52;;;;;;;19.38;14.75;;;3.70;99.90;;;;;;5016018;28;20196;-73
2021/03/19 03:25:21;;;;;;;21.92;14.02;;;3.60;99.90;;;;;;5015630;28;20569;-75
2021/03/19 03:27:49;;;;;;;18.45;14.27;;;3.60;1.00;;;;;;5015441;28;20200;-75
2021/03/19 03:30:20;;;;;;;20.30;15.50;;;3.60;1.00;;;;;;5016785;28;20200;-75
2021/03/19 03:32:48;;;;;;;23.30;16.08;;;3.60;1.00;;;;;;5015637;28;20200;-74
2021/03/19 03:35:15;;;;;;;26.70;16.38;;;3.50;1.00;;;;;;5017656;28;20212;-75
2021/03/19 03:37:42;;;;;;;22.63;16.58;;;3.50;1.00;;;;;;5036420;28;20196;-74
2021/03/19 03:40:13;;;;;;;19.50;15.13;;;3.50;1.00;;;;;;5035274;28;20223;-74
2021/03/19 03:42:41;;;;;;;21.98;15.68;;;3.50;1.00;;;;;;5018960;28;20199;-73
2021/03/19 03:45:09;;;;;;;24.15;15.73;;;3.50;1.00;;;;;;5018718;28;20619;-75
2021/03/19 03:47:36;;;;;;;22.33;16.63;;;3.50;99.90;;;;;;5019238;28;20195;-75
2021/03/19 03:50:06;;;;;;;26.23;16.23;;;3.50;99.90;;;;;;5036107;28;20191;-75
2021/03/19 03:52:32;;;;;;;21.73;16.98;;;3.50;1.00;;;;;;5035949;28;20199;-74
2021/03/19 03:54:59;;;;;;;24.33;14.98;;;3.50;1.00;;;;;;5035311;28;20230;-75
2021/03/19 03:57:26;;;;;;;22.98;16.67;;;3.40;1.00;;;;;;5034914;28;20637;-74
2021/03/19 03:59:53;;;;;;;22.50;16.15;;;3.40;1.00;;;;;;5035749;28;20223;-75
2021/03/19 04:02:23;;;;;;;20.85;14.60;;;3.40;1.00;;;;;;5035749;28;20591;-75
2021/03/19 04:04:50;;;;;;;21.15;16.25;;;3.30;1.00;;;;;;5017846;28;20216;-73
2021/03/19 04:07:17;;;;;;;23.27;16.88;;;3.30;1.00;;;;;;5018120;28;20533;-75
2021/03/19 04:09:44;;;;;;;23.67;16.65;;;3.30;1.00;;;;;;5002112;28;20208;-74
2021/03/19 04:12:11;;;;;;;24.10;15.75;;;3.30;1.00;;;;;;5017451;28;20500;-74
2021/03/19 04:14:38;;;;;;;22.20;15.57;;;3.20;1.00;;;;;;5001826;28;20223;-75
2021/03/19 04:17:08;;;;;;;27.40;16.52;;;3.20;1.00;;;;;;5035598;28;20624;-74
2021/03/19 04:19:35;;;;;;;20.73;15.80;;;3.20;1.00;;;;;;5017756;28;20211;-75
2021/03/19 04:22:02;;;;;;;19.98;14.45;;;3.20;1.00;;;;;;5035419;28;20341;-73
2021/03/19 04:24:29;;;;;;;22.95;16.42;;;3.20;1.00;;;;;;5018017;28;20226;-75
2021/03/19 04:26:56;;;;;;;26.50;16.88;;;3.20;1.00;;;;;;5035449;28;20195;-74
2021/03/19 04:29:22;;;;;;;25.73;16.40;;;3.20;1.00;;;;;;5034694;28;20242;-75
2021/03/19 04:31:49;;;;;;;21.90;15.15;;;3.20;1.00;;;;;;5035464;28;20199;-75
2021/03/19 04:34:17;;;;;;;22.95;14.93;;;3.10;1.00;;;;;;5035190;28;20223;-75
2021/03/19 04:36:47;;;;;;;21.30;14.52;;;3.10;1.00;;;;;;5035512;28;20223;-75
2021/03/19 04:39:18;;;;;;;24.23;15.82;;;3.10;1.00;;;;;;5035092;28;20215;-74
2021/03/19 04:41:47;;;;;;;26.90;16.23;;;3.10;1.00;;;;;;5018039;28;20203;-74
2021/03/19 04:44:14;;;;;;;27.77;17.40;;;3.10;1.00;;;;;;5017380;28;20234;-74
2021/03/19 04:46:41;;;;;;;24.30;17.10;;;3.10;1.00;;;;;;5016716;28;20282;-74
2021/03/19 04:49:08;;;;;;;23.77;16.08;;;3.10;1.00;;;;;;5035753;28;20210;-74
2021/03/19 04:51:36;;;;;;;23.30;16.90;;;3.10;99.90;;;;;;5035296;28;20727;-75
2021/03/19 04:54:02;;;;;;;21.88;15.73;;;3.10;99.90;;;;;;5034926;28;20310;-74
2021/03/19 04:56:29;;;;;;;25.67;15.80;;;3.10;99.90;;;;;;5034719;28;20252;-74
2021/03/19 04:58:55;;;;;;;23.17;16.10;;;3.10;99.90;;;;;;5034760;28;20302;-74
2021/03/19 05:01:22;;;;;;;22.33;16.65;;;3.00;99.90;;;;;;5034567;28;20256;-75
2021/03/19 05:03:49;;;;;;;25.92;17.77;;;3.00;99.90;;;;;;5034257;28;20226;-74
2021/03/19 05:06:16;;;;;;;24.17;15.90;;;2.90;99.90;;;;;;5034796;28;20253;-74
2021/03/19 05:08:44;;;;;;;25.42;18.90;;;2.90;99.90;;;;;;5034565;28;20294;-75
2021/03/19 05:11:12;;;;;;;24.85;17.05;;;3.00;99.90;;;;;;5016968;28;20199;-74
2021/03/19 05:13:39;;;;;;;21.58;14.77;;;2.90;99.90;;;;;;5016724;28;20198;-74
2021/03/19 05:16:06;;;;;;;21.80;15.25;;;2.90;99.90;;;;;;5017004;28;20237;-74
2021/03/19 05:18:33;;;;;;;25.05;17.00;;;2.90;99.90;;;;;;5016612;28;20680;-74
2021/03/19 05:20:59;;;;;;;26.35;15.45;;;2.90;99.90;;;;;;5034465;28;20207;-73
2021/03/19 05:23:28;;;;;;;25.95;16.83;;;2.90;99.90;;;;;;5034355;28;20282;-74
2021/03/19 05:25:57;;;;;;;23.83;15.73;;;2.90;99.90;;;;;;5016764;28;20289;-74
2021/03/19 05:28:24;;;;;;;23.63;16.48;;;2.90;99.90;;;;;;5033988;28;20203;-74
2021/03/19 05:30:53;;;;;;;25.83;17.67;;;2.90;99.90;;;;;;5016712;28;20624;-73
2021/03/19 05:33:20;;;;;;;25.80;16.45;;;2.90;99.90;;;;;;5016311;28;20198;-74
2021/03/19 05:35:47;;;;;;;28.17;19.13;;;2.90;99.90;;;;;;5033934;28;20321;-74
2021/03/19 05:38:13;;;;;;;25.63;17.05;;;2.90;1.00;;;;;;5033985;28;20227;-74
2021/03/19 05:40:44;;;;;;;28.10;17.88;;;2.90;1.00;;;;;;5034316;28;20289;-74
2021/03/19 05:43:27;;;;;;;27.20;18.73;;;2.90;1.00;;;;;;5000633;28;20282;-74
2021/03/19 05:45:56;;;;;;;24.05;18.25;;;2.90;1.00;;;;;;5002541;28;20289;-74
2021/03/19 05:48:25;;;;;;;25.63;17.88;;;3.00;1.00;;;;;;5016262;28;20294;-74
2021/03/19 05:50:52;;;;;;;28.40;18.52;;;3.00;1.00;;;;;;5015812;28;20286;-74
2021/03/19 05:53:21;;;;;;;26.42;16.60;;;3.00;1.00;;;;;;5033818;28;20196;-75
2021/03/19 05:55:49;;;;;;;27.35;18.17;;;3.00;1.00;;;;;;5016548;28;20225;-75
2021/03/19 05:58:25;;;;;;;23.55;17.05;;;2.90;1.00;;;;;;5016232;28;20696;-74
2021/03/19 06:00:55;;;;;;;28.45;17.60;;;2.90;1.00;;;;;;5033745;28;20282;-74
2021/03/19 06:03:22;;;;;;;24.48;17.55;;;3.00;1.00;;;;;;5033819;28;20577;-74
2021/03/19 06:05:59;;;;;;;29.08;17.67;;;3.00;1.00;;;;;;5033420;28;20775;-74
2021/03/19 06:08:31;;;;;;;23.15;15.63;;;3.00;99.90;;;;;;5015826;28;20209;-74
2021/03/19 06:11:06;;;;;;;25.65;15.90;;;3.10;1.00;;;;;;5033199;28;20604;-73
2021/03/19 06:13:44;;;;;;;21.95;15.48;;;3.10;1.00;;;;;;5033551;28;20294;-75
2021/03/19 06:16:35;;;;;;;22.02;15.85;;;3.20;1.00;;;;;;5033505;28;20210;-73
2021/03/19 06:19:04;;;;;;;24.13;14.88;;;3.10;1.00;;;;;;5016878;28;20223;-75
2021/03/19 06:21:33;;;;;;;20.48;14.20;;;3.10;1.00;;;;;;5033638;28;20282;-74
2021/03/19 06:24:05;;;;;;;20.17;13.60;;;3.20;1.00;;;;;;5033374;28;20298;-74
2021/03/19 06:26:35;;;;;;;22.63;13.65;;;3.10;1.00;;;;;;5016322;28;20199;-74
2021/03/19 06:29:12;;;;;;;19.75;13.35;;;3.30;99.90;;;;;;5015355;28;20223;-74
2021/03/19 06:31:40;;;;;;;22.80;13.32;;;3.20;99.90;;;;;;5033448;28;20208;-74
2021/03/19 06:34:11;;;;;;;17.60;12.45;;;3.40;99.90;;;;;;5015868;28;20632;-73
2021/03/19 06:36:54;;;;;;;20.45;14.23;;;3.40;99.90;;;;;;5014301;28;20370;-73
2021/03/19 06:39:23;;;;;;;18.55;12.85;;;3.40;1.00;;;;;;5001477;28;20231;-74
2021/03/19 06:42:07;;;;;;;20.00;13.23;;;3.50;1.00;;;;;;5016211;28;20705;-73
2021/03/19 06:44:34;;;;;;;21.63;12.95;;;3.50;99.90;;;;;;5015632;28;20705;-73
2021/03/19 06:47:05;;;;;;;19.50;13.05;;;3.60;1.00;;;;;;5033293;28;20612;-73
2021/03/19 06:49:49;;;;;;;16.13;12.25;;;3.60;1.00;;;;;;5015881;28;20296;-74
2021/03/19 06:52:26;;;;;;;17.27;12.00;;;3.70;1.00;;;;;;5033274;28;20615;-74
2021/03/19 06:54:55;;;;;;;19.20;13.50;;;3.80;20.30;;;;;;5032988;28;20682;-72
2021/03/19 06:57:22;;;;;;;18.60;13.55;;;3.80;1.00;;;;;;5014935;28;20262;-73
2021/03/19 06:59:51;;;;;;;17.55;11.65;;;3.90;99.90;;;;;;5023197;28;20240;-74
2021/03/19 07:02:41;;;;;;;18.20;12.63;;;4.00;99.90;;;;;;5029570;28;20545;-73
2021/03/19 07:05:30;;;;;;;16.10;11.68;;;4.00;99.90;;;;;;5015325;28;20309;-73
2021/03/19 07:08:09;;;;;;;16.50;11.90;;;4.10;99.90;;;;;;5033181;28;20596;-73
2021/03/19 07:10:46;;;;;;;15.80;11.85;;;4.10;17.10;;;;;;5032811;28;20285;-75
2021/03/19 07:13:41;;;;;;;16.63;10.50;;;4.20;1.00;;;;;;5015592;28;20285;-73
2021/03/19 07:16:13;;;;;;;17.73;11.95;;;4.30;1.00;;;;;;5017747;28;20230;-73
2021/03/19 07:19:11;;;;;;;16.58;11.60;;;4.30;1.00;;;;;;5015116;28;20314;-72
2021/03/19 07:22:07;;;;;;;15.38;11.85;;;4.40;99.90;;;;;;5015654;28;20206;-72
2021/03/19 07:24:50;;;;;;;15.38;11.02;;;4.50;99.90;;;;;;5018801;28;20294;-73
2021/03/19 07:27:29;;;;;;;16.58;10.90;;;4.60;99.90;;;;;;5033044;28;20206;-73
2021/03/19 07:30:11;;;;;;;17.65;11.32;;;4.70;99.90;;;;;;5016045;28;20541;-73
2021/03/19 07:32:54;;;;;;;15.55;11.68;;;4.70;34.90;;;;;;5020259;28;20291;-73
2021/03/19 07:35:39;;;;;;;17.35;11.70;;;4.70;41.00;;;;;;5036513;28;20309;-73
2021/03/19 07:38:33;;;;;;;14.05;9.48;;;4.80;1.00;;;;;;5019106;28;20255;-74
2021/03/19 07:41:11;;;;;;;13.85;9.52;;;4.80;1.00;;;;;;5035694;28;20352;-73
2021/03/19 07:43:48;;;;;;;13.27;9.63;;;4.80;1.00;;;;;;5019904;28;20230;-73
2021/03/19 07:46:22;;;;;;;14.68;10.55;;;4.80;1.00;;;;;;5036447;28;20336;-73
2021/03/19 07:49:05;;;;;;;17.63;10.18;;;4.90;1.00;;;;;;5019573;28;20293;-73
2021/03/19 07:51:45;;;;;;;16.92;12.18;;;4.90;1.00;;;;;;5036349;28;20202;-73
2021/03/19 07:54:16;;;;;;;15.40;10.90;;;5.00;1.00;;;;;;5019405;28;20253;-73
2021/03/19 07:56:52;;;;;;;15.07;11.10;;;5.10;1.00;;;;;;5003550;28;20199;-72
2021/03/19 07:59:28;;;;;;;17.83;11.93;;;5.20;1.00;;;;;;5036130;28;20226;-74
2021/03/19 08:02:12;;;;;;;18.85;12.15;;;5.20;1.00;;;;;;5036190;28;20290;-74
2021/03/19 08:04:43;;;;;;;16.77;11.43;;;5.20;1.00;;;;;;5020611;28;20257;-74
2021/03/19 08:07:23;;;;;;;17.60;12.70;;;5.20;1.00;;;;;;5018666;28;20721;-73
2021/03/19 08:09:59;;;;;;;20.90;11.88;;;5.30;1.00;;;;;;5036018;28;20282;-73
2021/03/19 08:12:30;;;;;;;16.75;11.40;;;5.40;1.00;;;;;;5035948;28;20214;-73
2021/03/19 08:15:14;;;;;;;14.15;10.25;;;5.40;1.00;;;;;;5035811;28;20225;-73
2021/03/19 08:17:53;;;;;;;15.00;10.55;;;5.40;1.00;;;;;;5019739;28;20195;-73
2021/03/19 08:20:49;;;;;;;17.75;11.45;;;5.50;1.00;;;;;;5035679;28;20321;-73
2021/03/19 08:23:32;;;;;;;18.45;12.23;;;5.60;1.00;;;;;;5020177;28;20220;-74
2021/03/19 08:25:59;;;;;;;16.17;10.60;;;5.60;1.00;;;;;;5035787;28;20251;-71
2021/03/19 08:28:34;;;;;;;18.85;11.80;;;5.70;1.00;;;;;;5035385;28;20732;-72
2021/03/19 08:31:14;;;;;;;13.98;10.95;;;5.80;1.00;;;;;;5035681;28;20288;-72
2021/03/19 08:34:00;;;;;;;18.13;12.15;;;5.90;1.00;;;;;;5035479;28;20208;-73
2021/03/19 08:36:38;;;;;;;20.25;11.60;;;6.00;1.00;;;;;;5018442;28;20249;-73
2021/03/19 08:39:14;;;;;;;13.43;11.07;;;6.00;1.00;;;;;;5034929;28;20310;-73
2021/03/19 08:41:45;;;;;;;15.65;10.35;;;6.00;1.00;;;;;;5028568;28;20189;-72
2021/03/19 08:44:14;;;;;;;13.00;9.27;;;6.00;1.00;;;;;;5015234;28;20759;-72
2021/03/19 08:46:45;;;;;;;19.38;9.95;;;6.10;1.00;;;;;;5013026;28;20226;-72
2021/03/19 08:49:16;;;;;;;12.25;9.55;;;6.10;1.00;;;;;;5034853;28;20198;-72
2021/03/19 08:51:45;;;;;;;14.05;9.45;;;6.10;99.90;;;;;;5035830;28;20201;-72
2021/03/19 08:54:24;;;;;;;12.27;9.05;;;6.10;99.90;;;;;;5017882;28;20252;-72
2021/03/19 08:56:53;;;;;;;11.27;9.05;;;6.10;99.90;;;;;;5018055;28;20200;-72
2021/03/19 08:59:49;;;;;;;13.73;9.20;;;6.00;99.90;;;;;;5035049;28;20270;-72
2021/03/19 09:02:45;;;;;;;11.98;8.75;;;6.10;99.90;;;;;;5007626;28;20195;-72
2021/03/19 09:05:24;;;;;;;10.60;8.40;;;6.10;99.90;;;;;;5019189;28;20633;-72
2021/03/19 09:08:14;;;;;;;12.00;8.48;;;6.10;99.90;;;;;;5035138;28;20298;-73
2021/03/19 09:11:06;;;;;;;11.93;8.73;;;6.10;99.90;;;;;;5020628;28;20231;-72
2021/03/19 09:13:33;;;;;;;10.43;7.60;;;6.20;99.90;;;;;;5016829;28;20196;-73
2021/03/19 09:16:34;;;;;;;11.77;7.68;;;6.20;99.90;;;;;;5035242;28;20201;-73
2021/03/19 09:19:02;;;;;;;13.57;8.13;;;6.20;99.90;;;;;;5021485;28;20214;-73
2021/03/19 09:21:31;;;;;;;11.10;6.82;;;6.20;99.90;;;;;;5034291;28;20222;-72
2021/03/19 09:24:07;;;;;;;11.55;7.35;;;6.30;99.90;;;;;;5000766;28;20220;-73
2021/03/19 09:26:44;;;;;;;6.60;5.70;;;6.30;99.90;;;;;;5001220;28;20241;-72
2021/03/19 09:29:28;;;;;;;8.30;6.40;;;6.30;99.90;;;;;;5001332;28;20238;-72
2021/03/19 09:31:56;;;;;;;8.80;6.03;;;6.40;99.90;;;;;;5003162;28;20252;-71
2021/03/19 09:34:59;;;;;;;8.32;5.57;;;6.30;99.90;;;;;;5034925;28;20274;-73
2021/03/19 09:37:49;;;;;;;8.48;5.45;;;6.30;99.90;;;;;;5012256;28;20224;-72
2021/03/19 09:40:43;;;;;;;7.78;5.32;;;6.30;99.90;;;;;;5014559;28;20230;-72
2021/03/19 09:43:31;;;;;;;6.28;5.30;;;6.20;99.90;;;;;;4992296;28;20197;-73
2021/03/19 09:46:06;;;;;;;7.65;5.13;;;6.20;99.90;;;;;;4994007;28;20209;-72
2021/03/19 09:48:35;;;;;;;8.52;5.30;;;6.20;99.90;;;;;;4994900;28;20219;-73
2021/03/19 09:51:29;;;;;;;6.07;4.28;;;6.20;99.90;;;;;;5005490;28;20197;-72
2021/03/19 09:53:56;;;;;;;5.72;4.63;;;6.30;99.90;;;;;;5012425;28;20279;-72
2021/03/19 09:56:27;;;;;;;7.43;4.82;;;6.30;99.90;;;;;;5014174;28;20278;-72
2021/03/19 09:58:57;;;;;;;6.50;4.40;;;6.30;99.90;;;;;;5013309;28;20736;-72
2021/03/19 10:01:31;;;;;;;5.38;3.92;;;6.30;99.90;;;;;;4996631;28;20287;-72
2021/03/19 10:04:01;;;;;;;4.88;3.83;;;6.30;99.90;;;;;;4997399;28;20326;-72
2021/03/19 10:06:32;;;;;;;4.68;3.83;;;6.30;99.90;;;;;;5013141;28;20708;-72
2021/03/19 10:09:11;;;;;;;5.18;3.70;;;6.20;99.90;;;;;;5012396;28;20205;-72
2021/03/19 10:12:04;;;;;;;8.68;3.80;;;6.10;99.90;;;;;;5012979;28;20200;-73
2021/03/19 10:14:34;;;;;;;4.20;3.40;;;6.10;99.90;;;;;;5013056;28;20311;-73
2021/03/19 10:17:10;;;;;;;5.82;3.90;;;6.10;99.90;;;;;;5012515;28;20192;-73
2021/03/19 10:19:39;;;;;;;6.25;4.03;;;6.00;99.90;;;;;;4997417;28;20310;-73
2021/03/19 10:22:08;;;;;;;4.72;3.85;;;6.00;99.90;;;;;;5012796;28;20290;-72
2021/03/19 10:24:36;;;;;;;4.55;3.10;;;6.00;99.90;;;;;;5013477;28;20682;-73
2021/03/19 10:27:10;;;;;;;6.18;3.25;;;6.00;99.90;;;;;;5014360;28;20649;-73
2021/03/19 10:29:40;;;;;;;4.50;3.20;;;6.10;99.90;;;;;;5012856;28;20773;-72
2021/03/19 10:32:11;;;;;;;4.45;3.22;;;6.10;99.90;;;;;;5013460;28;20235;-72
2021/03/19 10:34:47;;;;;;;4.68;2.97;;;6.10;99.90;;;;;;5012507;28;20308;-72
2021/03/19 10:37:31;;;;;;;3.85;2.78;;;6.20;99.90;;;;;;5028899;28;20220;-73
2021/03/19 10:40:01;;;;;;;2.78;2.58;;;6.20;99.90;;;;;;5032961;28;20310;-73
2021/03/19 10:42:34;;;;;;;3.10;2.40;;;6.20;99.90;;;;;;5033679;28;20203;-73
2021/03/19 10:45:10;;;;;;;3.88;3.28;;;6.20;99.90;;;;;;5015379;28;20234;-72
2021/03/19 10:47:45;;;;;;;3.92;2.50;;;6.20;99.90;;;;;;5012763;28;20190;-73
2021/03/19 10:50:18;;;;;;;5.90;3.05;;;6.30;99.90;;;;;;5033508;28;20222;-73
2021/03/19 10:52:52;;;;;;;7.15;3.08;;;6.30;99.90;;;;;;5016559;28;20257;-72
2021/03/19 10:55:26;;;;;;;2.40;2.20;;;6.30;99.90;;;;;;5032795;28;20302;-73
2021/03/19 10:58:12;;;;;;;3.13;2.80;;;6.30;99.90;;;;;;5016338;28;20294;-73
2021/03/19 11:00:42;;;;;;;3.55;2.67;;;6.30;99.90;;;;;;5018134;28;20647;-74
2021/03/19 11:03:18;;;;;;;7.85;2.63;;;6.30;99.90;;;;;;5033474;28;20195;-73
2021/03/19 11:05:59;;;;;;;3.67;2.45;;;6.40;99.90;;;;;;5035281;28;20227;-73
2021/03/19 11:08:26;;;;;;;3.67;2.65;;;6.40;99.90;;;;;;5022221;28;20286;-73
2021/03/19 11:10:53;;;;;;;4.63;3.08;;;6.40;99.90;;;;;;5036897;28;20275;-73
2021/03/19 11:13:25;;;;;;;4.00;2.97;;;6.50;99.90;;;;;;5037345;28;20214;-73
2021/03/19 11:15:55;;;;;;;3.20;2.90;;;6.60;99.90;;;;;;5019229;28;20226;-71
2021/03/19 11:18:24;;;;;;;4.50;3.00;;;6.70;99.90;;;;;;5002908;28;20196;-72
2021/03/19 11:20:53;;;;;;;4.28;2.17;;;6.70;99.90;;;;;;5019335;28;20252;-72
2021/03/19 11:23:25;;;;;;;5.40;2.63;;;6.80;99.90;;;;;;5003459;28;20291;-72
2021/03/19 11:25:54;;;;;;;6.00;3.22;;;6.80;99.90;;;;;;5003312;28;20221;-72
2021/03/19 11:28:28;;;;;;;4.82;2.40;;;6.90;99.90;;;;;;5003320;28;20198;-73
2021/03/19 11:31:10;;;;;;;7.55;4.82;;;6.90;99.90;;;;;;5036752;28;20202;-72
2021/03/19 11:33:52;;;;;;;3.38;2.55;;;6.90;99.90;;;;;;5019191;28;20205;-72
2021/03/19 11:36:19;;;;;;;2.97;2.35;;;6.90;99.90;;;;;;5019122;28;20235;-74
2021/03/19 11:38:46;;;;;;;3.47;2.25;;;6.90;99.90;;;;;;5036415;28;20229;-72
2021/03/19 11:41:29;;;;;;;3.00;2.20;;;6.80;99.90;;;;;;5036597;28;20239;-74
2021/03/19 11:43:56;;;;;;;4.03;2.22;;;6.80;99.90;;;;;;5004987;28;20233;-73
2021/03/19 11:46:24;;;;;;;4.38;2.60;;;6.80;99.90;;;;;;5019091;28;20296;-72
2021/03/19 11:48:51;;;;;;;4.15;2.55;;;6.80;99.90;;;;;;5019478;28;20696;-72
2021/03/19 11:51:21;;;;;;;4.78;2.85;;;6.80;99.90;;;;;;5036441;28;20229;-72
2021/03/19 11:53:48;;;;;;;1.95;1.83;;;6.80;99.90;;;;;;5018861;28;20205;-71
2021/03/19 11:56:15;;;;;;;6.88;2.53;;;6.80;99.90;;;;;;5036379;28;20582;-74
2021/03/19 11:58:42;;;;;;;2.33;2.13;;;6.90;99.90;;;;;;5036152;28;20235;-74
2021/03/19 12:01:10;;;;;;;3.30;2.40;;;6.80;99.90;;;;;;5036263;28;20232;-73
2021/03/19 12:03:41;;;;;;;3.45;2.65;;;6.90;99.90;;;;;;5036152;28;20228;-73
2021/03/19 12:06:09;;;;;;;3.03;2.30;;;7.00;99.90;;;;;;5019140;28;20678;-73
2021/03/19 12:08:38;;;;;;;2.40;2.08;;;7.00;99.90;;;;;;5018542;28;20658;-74
2021/03/19 12:11:07;;;;;;;3.35;2.80;;;7.00;99.90;;;;;;5002911;28;20201;-73
2021/03/19 12:13:34;;;;;;;5.60;2.28;;;7.00;99.90;;;;;;5018704;28;20227;-73
2021/03/19 12:16:00;;;;;;;3.00;1.90;;;7.00;99.90;;;;;;5035836;28;20315;-73
2021/03/19 12:18:28;;;;;;;2.30;2.10;;;7.00;99.90;;;;;;5017891;28;20560;-73
2021/03/19 12:20:59;;;;;;;2.70;2.05;;;7.00;99.90;;;;;;5018210;28;20316;-73
2021/03/19 12:23:27;;;;;;;2.05;1.88;;;7.00;99.90;;;;;;5037953;28;20200;-73
2021/03/19 12:25:53;;;;;;;4.80;2.03;;;7.00;99.90;;;;;;5035890;28;20217;-73
2021/03/19 12:28:23;;;;;;;2.22;1.95;;;7.00;99.90;;;;;;5035805;28;20274;-73
2021/03/19 12:30:50;;;;;;;3.67;2.45;;;7.10;99.90;;;;;;5018388;28;20210;-73
2021/03/19 12:33:17;;;;;;;2.88;2.03;;;7.10;99.90;;;;;;5018049;28;20292;-73
2021/03/19 12:35:44;;;;;;;2.20;1.98;;;7.10;99.90;;;;;;5035627;28;20256;-72
2021/03/19 12:38:13;;;;;;;3.03;1.92;;;7.10;99.90;;;;;;5035541;28;20229;-72
2021/03/19 12:40:40;;;;;;;2.30;2.10;;;7.10;99.90;;;;;;5017938;28;20275;-73
2021/03/19 12:43:08;;;;;;;2.07;1.87;;;7.20;99.90;;;;;;5018510;28;20694;-73
2021/03/19 12:45:35;;;;;;;2.67;2.38;;;7.20;99.90;;;;;;5035253;28;20517;-73
2021/03/19 12:48:03;;;;;;;3.92;2.17;;;7.20;99.90;;;;;;5035293;28;20241;-74
2021/03/19 12:50:31;;;;;;;3.50;2.50;;;7.30;99.90;;;;;;5015103;28;20233;-73
2021/03/19 12:52:59;;;;;;;3.38;2.40;;;7.30;99.90;;;;;;5023831;28;20225;-74
2021/03/19 12:55:27;;;;;;;3.63;2.55;;;7.40;99.90;;;;;;5017649;28;20244;-73
2021/03/19 12:57:54;;;;;;;1.97;1.70;;;7.40;99.90;;;;;;5001348;28;20285;-72
2021/03/19 13:00:24;;;;;;;2.10;1.85;;;7.40;98.00;;;;;;5034734;28;20567;-72
2021/03/19 13:02:52;;;;;;;2.25;1.80;;;7.40;95.90;;;;;;5033701;28;20312;-73
2021/03/19 13:05:22;;;;;;;4.45;2.00;;;7.30;93.40;;;;;;5034815;28;20303;-72
2021/03/19 13:07:48;;;;;;;2.13;1.70;;;7.30;92.00;;;;;;5034793;28;20276;-72
2021/03/19 13:10:16;;;;;;;3.13;1.90;;;7.30;91.60;;;;;;5034351;28;20479;-72
2021/03/19 13:12:44;;;;;;;3.22;2.40;;;7.40;91.40;;;;;;5034931;28;20235;-74
2021/03/19 13:15:14;;;;;;;1.50;1.40;;;7.40;91.10;;;;;;5033615;28;20219;-74
2021/03/19 13:17:41;;;;;;;2.13;1.70;;;7.40;90.50;;;;;;5017419;28;20588;-74